sensor_id;sensor_type;location;lat;lon;timestamp;pressure;altitude;pressure_sealevel;temperature;humidity
33404;BME280;19751;40.274;18.268;2023-04-29T00:00:37;101217.31;;;13.51;100.00
33404;BME280;19751;40.274;18.268;2023-04-29T00:03:03;101207.28;;;13.45;100.00
33404;BME280;19751;40.274;18.268;2023-04-29T00:05:28;101214.75;;;13.42;100.00
33404;BME280;19751;40.274;18.268;2023-04-29T00:07:54;101205.38;;;13.38;100.00
33404;BME280;19751;40.274;18.268;2023-04-29T00:10:19;101201.63;;;13.39;100.00
33404;BME280;19751;40.274;18.268;2023-04-29T00:12:45;101204.97;;;13.41;100.00
33404;BME280;19751;40.274;18.268;2023-04-29T00:15:10;101203.69;;;13.37;100.00
33404;BME280;19751;40.274;18.268;2023-04-29T00:17:36;101191.06;;;13.45;100.00
33404;BME280;19751;40.274;18.268;2023-04-29T00:20:02;101185.06;;;13.49;100.00
33404;BME280;19751;40.274;18.268;2023-04-29T00:22:27;101186.94;;;13.49;100.00
33404;BME280;19751;40.274;18.268;2023-04-29T00:24:53;101189.03;;;13.53;100.00
33404;BME280;19751;40.274;18.268;2023-04-29T00:27:18;101194.28;;;13.61;100.00
33404;BME280;19751;40.274;18.268;2023-04-29T00:29:44;101192.25;;;13.70;100.00
33404;BME280;19751;40.274;18.268;2023-04-29T00:32:10;101189.34;;;13.72;100.00
33404;BME280;19751;40.274;18.268;2023-04-29T00:34:35;101184.81;;;13.79;100.00
33404;BME280;19751;40.274;18.268;2023-04-29T00:37:00;101185.66;;;13.79;100.00
33404;BME280;19751;40.274;18.268;2023-04-29T00:39:26;101186.88;;;13.77;100.00
33404;BME280;19751;40.274;18.268;2023-04-29T00:41:52;101184.75;;;13.72;100.00
33404;BME280;19751;40.274;18.268;2023-04-29T00:44:17;101183.94;;;13.72;100.00
33404;BME280;19751;40.274;18.268;2023-04-29T00:46:43;101177.25;;;13.67;100.00
33404;BME280;19751;40.274;18.268;2023-04-29T00:49:09;101186.63;;;13.65;100.00
33404;BME280;19751;40.274;18.268;2023-04-29T00:51:36;101178.06;;;13.61;100.00
33404;BME280;19751;40.274;18.268;2023-04-29T00:54:06;101183.81;;;13.52;100.00
33404;BME280;19751;40.274;18.268;2023-04-29T00:56:34;101181.50;;;13.49;100.00
33404;BME280;19751;40.274;18.268;2023-04-29T00:59:01;101182.50;;;13.41;100.00
33404;BME280;19751;40.274;18.268;2023-04-29T01:01:28;101178.31;;;13.38;100.00
33404;BME280;19751;40.274;18.268;2023-04-29T01:03:56;101180.38;;;13.36;100.00
33404;BME280;19751;40.274;18.268;2023-04-29T01:15:16;101185.75;;;13.08;100.00
33404;BME280;19751;40.274;18.268;2023-04-29T01:17:50;101181.38;;;13.07;100.00
33404;BME280;19751;40.274;18.268;2023-04-29T01:20:19;101183.50;;;13.12;100.00
33404;BME280;19751;40.274;18.268;2023-04-29T01:22:46;101180.19;;;13.16;100.00
33404;BME280;19751;40.274;18.268;2023-04-29T01:25:13;101183.72;;;13.17;100.00
33404;BME280;19751;40.274;18.268;2023-04-29T01:35:21;101187.81;;;13.28;100.00
33404;BME280;19751;40.274;18.268;2023-04-29T01:37:59;101189.88;;;13.26;100.00
33404;BME280;19751;40.274;18.268;2023-04-29T01:40:36;101191.53;;;13.27;100.00
33404;BME280;19751;40.274;18.268;2023-04-29T01:43:06;101181.97;;;13.24;100.00
33404;BME280;19751;40.274;18.268;2023-04-29T01:45:37;101186.06;;;13.20;100.00
33404;BME280;19751;40.274;18.268;2023-04-29T01:48:06;101187.03;;;13.12;100.00
33404;BME280;19751;40.274;18.268;2023-04-29T01:50:32;101188.84;;;13.05;100.00
33404;BME280;19751;40.274;18.268;2023-04-29T01:52:58;101184.66;;;13.03;100.00
33404;BME280;19751;40.274;18.268;2023-04-29T01:55:23;101188.38;;;13.02;100.00
33404;BME280;19751;40.274;18.268;2023-04-29T01:57:49;101178.22;;;13.04;100.00
33404;BME280;19751;40.274;18.268;2023-04-29T02:00:15;101181.56;;;13.06;100.00
33404;BME280;19751;40.274;18.268;2023-04-29T02:02:40;101173.44;;;13.06;100.00
33404;BME280;19751;40.274;18.268;2023-04-29T02:05:06;101177.84;;;13.07;100.00
33404;BME280;19751;40.274;18.268;2023-04-29T02:07:32;101171.25;;;13.16;100.00
33404;BME280;19751;40.274;18.268;2023-04-29T02:09:57;101157.13;;;13.21;100.00
33404;BME280;19751;40.274;18.268;2023-04-29T02:12:23;101160.09;;;13.26;100.00
33404;BME280;19751;40.274;18.268;2023-04-29T02:14:51;101164.91;;;13.30;100.00
33404;BME280;19751;40.274;18.268;2023-04-29T02:17:17;101166.16;;;13.28;100.00
33404;BME280;19751;40.274;18.268;2023-04-29T02:19:43;101157.59;;;13.24;100.00
33404;BME280;19751;40.274;18.268;2023-04-29T02:22:08;101163.19;;;13.23;100.00
33404;BME280;19751;40.274;18.268;2023-04-29T02:24:37;101156.31;;;13.20;100.00
33404;BME280;19751;40.274;18.268;2023-04-29T02:27:03;101154.19;;;13.15;100.00
33404;BME280;19751;40.274;18.268;2023-04-29T02:29:30;101156.00;;;13.08;100.00
33404;BME280;19751;40.274;18.268;2023-04-29T02:31:56;101154.25;;;13.01;100.00
33404;BME280;19751;40.274;18.268;2023-04-29T02:34:22;101154.03;;;12.96;100.00
33404;BME280;19751;40.274;18.268;2023-04-29T02:36:48;101151.06;;;12.90;100.00
33404;BME280;19751;40.274;18.268;2023-04-29T02:39:14;101145.84;;;12.89;100.00
33404;BME280;19751;40.274;18.268;2023-04-29T02:41:39;101145.00;;;12.88;100.00
33404;BME280;19751;40.274;18.268;2023-04-29T02:44:06;101138.56;;;12.89;100.00
33404;BME280;19751;40.274;18.268;2023-04-29T02:46:32;101142.75;;;12.92;100.00
33404;BME280;19751;40.274;18.268;2023-04-29T02:48:59;101143.41;;;12.94;100.00
33404;BME280;19751;40.274;18.268;2023-04-29T02:51:26;101146.75;;;12.96;100.00
33404;BME280;19751;40.274;18.268;2023-04-29T02:53:52;101149.25;;;12.98;100.00
33404;BME280;19751;40.274;18.268;2023-04-29T02:56:18;101139.47;;;12.97;100.00
33404;BME280;19751;40.274;18.268;2023-04-29T02:58:43;101141.53;;;12.94;100.00
33404;BME280;19751;40.274;18.268;2023-04-29T03:01:09;101139.84;;;12.93;100.00
33404;BME280;19751;40.274;18.268;2023-04-29T03:03:34;101137.13;;;12.93;100.00
33404;BME280;19751;40.274;18.268;2023-04-29T03:05:59;101140.28;;;12.97;100.00
33404;BME280;19751;40.274;18.268;2023-04-29T03:08:25;101139.69;;;13.02;100.00
33404;BME280;19751;40.274;18.268;2023-04-29T03:10:51;101144.47;;;13.00;100.00
33404;BME280;19751;40.274;18.268;2023-04-29T03:13:16;101143.00;;;12.97;100.00
33404;BME280;19751;40.274;18.268;2023-04-29T03:15:42;101140.88;;;12.92;100.00
33404;BME280;19751;40.274;18.268;2023-04-29T03:18:08;101143.34;;;12.87;100.00
33404;BME280;19751;40.274;18.268;2023-04-29T03:20:34;101141.22;;;12.83;100.00
33404;BME280;19751;40.274;18.268;2023-04-29T03:22:59;101146.19;;;12.79;100.00
33404;BME280;19751;40.274;18.268;2023-04-29T03:25:25;101140.91;;;12.71;100.00
33404;BME280;19751;40.274;18.268;2023-04-29T03:27:50;101145.22;;;12.65;100.00
33404;BME280;19751;40.274;18.268;2023-04-29T03:30:16;101162.66;;;12.63;100.00
33404;BME280;19751;40.274;18.268;2023-04-29T03:32:42;101161.38;;;12.59;100.00
33404;BME280;19751;40.274;18.268;2023-04-29T03:35:07;101163.59;;;12.55;100.00
33404;BME280;19751;40.274;18.268;2023-04-29T03:37:33;101156.75;;;12.53;100.00
33404;BME280;19751;40.274;18.268;2023-04-29T03:39:58;101149.63;;;12.52;100.00
33404;BME280;19751;40.274;18.268;2023-04-29T03:42:24;101160.44;;;12.52;100.00
33404;BME280;19751;40.274;18.268;2023-04-29T03:44:49;101155.44;;;12.49;100.00
33404;BME280;19751;40.274;18.268;2023-04-29T03:47:15;101159.16;;;12.48;100.00
33404;BME280;19751;40.274;18.268;2023-04-29T03:49:40;101167.84;;;12.43;100.00
33404;BME280;19751;40.274;18.268;2023-04-29T03:52:06;101163.22;;;12.37;100.00
33404;BME280;19751;40.274;18.268;2023-04-29T03:54:31;101166.50;;;12.32;100.00
33404;BME280;19751;40.274;18.268;2023-04-29T03:56:57;101162.50;;;12.28;100.00
33404;BME280;19751;40.274;18.268;2023-04-29T03:59:22;101156.38;;;12.19;100.00
33404;BME280;19751;40.274;18.268;2023-04-29T04:01:48;101155.34;;;12.06;100.00
33404;BME280;19751;40.274;18.268;2023-04-29T04:04:13;101153.69;;;12.05;100.00
33404;BME280;19751;40.274;18.268;2023-04-29T04:06:39;101157.22;;;12.05;100.00
33404;BME280;19751;40.274;18.268;2023-04-29T04:09:05;101159.19;;;12.11;100.00
33404;BME280;19751;40.274;18.268;2023-04-29T04:11:30;101159.06;;;12.19;100.00
33404;BME280;19751;40.274;18.268;2023-04-29T04:13:56;101149.81;;;12.29;100.00
33404;BME280;19751;40.274;18.268;2023-04-29T04:16:21;101156.56;;;12.39;100.00
33404;BME280;19751;40.274;18.268;2023-04-29T04:18:47;101157.97;;;12.35;100.00
33404;BME280;19751;40.274;18.268;2023-04-29T04:21:12;101163.59;;;12.34;100.00
33404;BME280;19751;40.274;18.268;2023-04-29T04:23:38;101161.59;;;12.42;100.00
33404;BME280;19751;40.274;18.268;2023-04-29T04:26:08;101166.50;;;12.54;100.00
33404;BME280;19751;40.274;18.268;2023-04-29T04:28:33;101164.16;;;12.65;100.00
33404;BME280;19751;40.274;18.268;2023-04-29T04:30:59;101176.03;;;12.71;100.00
33404;BME280;19751;40.274;18.268;2023-04-29T04:33:25;101175.06;;;12.79;100.00
33404;BME280;19751;40.274;18.268;2023-04-29T04:35:51;101163.75;;;12.90;100.00
33404;BME280;19751;40.274;18.268;2023-04-29T04:38:17;101171.16;;;13.03;100.00
33404;BME280;19751;40.274;18.268;2023-04-29T04:40:43;101164.34;;;13.13;100.00
33404;BME280;19751;40.274;18.268;2023-04-29T04:43:08;101169.25;;;13.25;99.37
33404;BME280;19751;40.274;18.268;2023-04-29T04:45:34;101174.53;;;13.33;98.95
33404;BME280;19751;40.274;18.268;2023-04-29T04:48:01;101157.50;;;13.39;98.50
33404;BME280;19751;40.274;18.268;2023-04-29T04:50:27;101155.44;;;13.41;98.40
33404;BME280;19751;40.274;18.268;2023-04-29T04:52:54;101152.75;;;13.48;98.24
33404;BME280;19751;40.274;18.268;2023-04-29T04:55:20;101151.59;;;13.57;97.30
33404;BME280;19751;40.274;18.268;2023-04-29T04:57:46;101154.97;;;13.65;95.88
33404;BME280;19751;40.274;18.268;2023-04-29T05:00:12;101156.88;;;13.72;95.47
33404;BME280;19751;40.274;18.268;2023-04-29T05:02:38;101142.13;;;13.81;95.08
33404;BME280;19751;40.274;18.268;2023-04-29T05:05:03;101139.44;;;13.87;95.93
33404;BME280;19751;40.274;18.268;2023-04-29T05:07:29;101141.16;;;13.95;98.12
33404;BME280;19751;40.274;18.268;2023-04-29T05:09:54;101139.50;;;14.01;99.23
33404;BME280;19751;40.274;18.268;2023-04-29T05:12:20;101139.53;;;14.07;100.00
33404;BME280;19751;40.274;18.268;2023-04-29T05:14:45;101136.84;;;14.14;100.00
33404;BME280;19751;40.274;18.268;2023-04-29T05:17:11;101145.41;;;14.17;100.00
33404;BME280;19751;40.274;18.268;2023-04-29T05:19:36;101145.66;;;14.23;100.00
33404;BME280;19751;40.274;18.268;2023-04-29T05:22:02;101145.66;;;14.29;100.00
33404;BME280;19751;40.274;18.268;2023-04-29T05:24:27;101140.25;;;14.36;100.00
33404;BME280;19751;40.274;18.268;2023-04-29T05:26:53;101139.66;;;14.40;100.00
33404;BME280;19751;40.274;18.268;2023-04-29T05:29:19;101138.81;;;14.47;100.00
33404;BME280;19751;40.274;18.268;2023-04-29T05:31:45;101135.94;;;14.55;100.00
33404;BME280;19751;40.274;18.268;2023-04-29T05:34:10;101127.00;;;14.61;100.00
33404;BME280;19751;40.274;18.268;2023-04-29T05:36:36;101134.28;;;14.67;100.00
33404;BME280;19751;40.274;18.268;2023-04-29T05:39:01;101137.22;;;14.72;100.00
33404;BME280;19751;40.274;18.268;2023-04-29T05:41:27;101140.16;;;14.77;100.00
33404;BME280;19751;40.274;18.268;2023-04-29T05:43:52;101138.69;;;14.81;100.00
33404;BME280;19751;40.274;18.268;2023-04-29T05:46:18;101141.41;;;14.88;100.00
33404;BME280;19751;40.274;18.268;2023-04-29T05:48:44;101141.19;;;14.96;100.00
33404;BME280;19751;40.274;18.268;2023-04-29T05:51:11;101141.44;;;15.01;100.00
33404;BME280;19751;40.274;18.268;2023-04-29T05:53:36;101153.09;;;15.08;100.00
33404;BME280;19751;40.274;18.268;2023-04-29T05:56:03;101153.72;;;15.17;100.00
33404;BME280;19751;40.274;18.268;2023-04-29T05:58:32;101158.94;;;15.25;100.00
33404;BME280;19751;40.274;18.268;2023-04-29T06:00:57;101158.09;;;15.31;100.00
33404;BME280;19751;40.274;18.268;2023-04-29T06:03:23;101157.66;;;15.41;100.00
33404;BME280;19751;40.274;18.268;2023-04-29T06:05:49;101148.47;;;15.49;100.00
33404;BME280;19751;40.274;18.268;2023-04-29T06:08:14;101156.81;;;15.54;100.00
33404;BME280;19751;40.274;18.268;2023-04-29T06:10:40;101154.06;;;15.67;99.37
33404;BME280;19751;40.274;18.268;2023-04-29T06:13:05;101149.66;;;15.79;97.28
33404;BME280;19751;40.274;18.268;2023-04-29T06:15:31;101154.03;;;15.87;95.22
33404;BME280;19751;40.274;18.268;2023-04-29T06:17:56;101160.50;;;15.93;93.32
33404;BME280;19751;40.274;18.268;2023-04-29T06:20:22;101157.75;;;15.99;91.57
33404;BME280;19751;40.274;18.268;2023-04-29T06:22:47;101155.84;;;16.06;89.78
33404;BME280;19751;40.274;18.268;2023-04-29T06:25:13;101153.31;;;16.11;90.15
33404;BME280;19751;40.274;18.268;2023-04-29T06:27:39;101146.38;;;16.15;91.63
33404;BME280;19751;40.274;18.268;2023-04-29T06:30:05;101138.22;;;16.22;91.48
33404;BME280;19751;40.274;18.268;2023-04-29T06:32:31;101141.72;;;16.29;91.26
33404;BME280;19751;40.274;18.268;2023-04-29T06:34:56;101138.31;;;16.40;90.12
33404;BME280;19751;40.274;18.268;2023-04-29T06:37:21;101134.72;;;16.47;86.60
33404;BME280;19751;40.274;18.268;2023-04-29T06:39:47;101140.53;;;16.50;84.72
33404;BME280;19751;40.274;18.268;2023-04-29T06:42:12;101138.41;;;16.59;81.90
33404;BME280;19751;40.274;18.268;2023-04-29T06:44:38;101137.28;;;16.66;80.79
33404;BME280;19751;40.274;18.268;2023-04-29T06:47:03;101137.06;;;16.75;80.58
33404;BME280;19751;40.274;18.268;2023-04-29T06:49:29;101130.75;;;16.81;80.07
33404;BME280;19751;40.274;18.268;2023-04-29T06:51:54;101131.75;;;16.86;78.78
33404;BME280;19751;40.274;18.268;2023-04-29T06:54:20;101137.81;;;16.88;77.52
33404;BME280;19751;40.274;18.268;2023-04-29T06:56:46;101147.78;;;16.95;77.08
33404;BME280;19751;40.274;18.268;2023-04-29T06:59:12;101136.88;;;17.01;76.42
33404;BME280;19751;40.274;18.268;2023-04-29T07:01:39;101139.31;;;17.09;73.70
33404;BME280;19751;40.274;18.268;2023-04-29T07:04:05;101138.41;;;17.15;70.62
33404;BME280;19751;40.274;18.268;2023-04-29T07:06:30;101133.75;;;17.23;67.96
33404;BME280;19751;40.274;18.268;2023-04-29T07:08:56;101140.16;;;17.28;66.06
33404;BME280;19751;40.274;18.268;2023-04-29T07:11:21;101131.13;;;17.34;68.50
33404;BME280;19751;40.274;18.268;2023-04-29T07:13:49;101133.72;;;17.48;66.60
33404;BME280;19751;40.274;18.268;2023-04-29T07:16:16;101127.53;;;17.59;65.67
33404;BME280;19751;40.274;18.268;2023-04-29T07:18:44;101134.53;;;17.67;64.03
33404;BME280;19751;40.274;18.268;2023-04-29T07:21:09;101139.31;;;17.71;62.29
33404;BME280;19751;40.274;18.268;2023-04-29T07:23:34;101140.56;;;17.75;61.53
33404;BME280;19751;40.274;18.268;2023-04-29T07:26:10;101149.72;;;17.81;60.96
33404;BME280;19751;40.274;18.268;2023-04-29T07:28:36;101154.25;;;17.87;61.05
33404;BME280;19751;40.274;18.268;2023-04-29T07:31:01;101147.06;;;17.93;61.04
33404;BME280;19751;40.274;18.268;2023-04-29T07:33:27;101149.09;;;17.97;60.27
33404;BME280;19751;40.274;18.268;2023-04-29T07:35:52;101144.75;;;18.08;59.41
33404;BME280;19751;40.274;18.268;2023-04-29T07:38:18;101144.94;;;18.13;59.97
33404;BME280;19751;40.274;18.268;2023-04-29T07:40:45;101147.34;;;18.21;60.36
33404;BME280;19751;40.274;18.268;2023-04-29T07:43:11;101143.09;;;18.25;60.00
33404;BME280;19751;40.274;18.268;2023-04-29T07:45:37;101140.13;;;18.27;58.47
33404;BME280;19751;40.274;18.268;2023-04-29T07:48:04;101138.72;;;18.36;54.24
33404;BME280;19751;40.274;18.268;2023-04-29T07:50:33;101144.56;;;18.39;52.70
33404;BME280;19751;40.274;18.268;2023-04-29T07:52:58;101142.44;;;18.42;53.04
33404;BME280;19751;40.274;18.268;2023-04-29T07:55:26;101138.78;;;18.48;54.21
33404;BME280;19751;40.274;18.268;2023-04-29T07:57:54;101138.44;;;18.56;53.41
33404;BME280;19751;40.274;18.268;2023-04-29T08:00:20;101130.03;;;18.57;53.52
33404;BME280;19751;40.274;18.268;2023-04-29T08:02:50;101124.94;;;18.61;53.57
33404;BME280;19751;40.274;18.268;2023-04-29T08:05:16;101126.91;;;18.72;53.41
33404;BME280;19751;40.274;18.268;2023-04-29T08:07:42;101125.03;;;18.84;53.74
33404;BME280;19751;40.274;18.268;2023-04-29T08:10:07;101124.22;;;18.96;52.84
33404;BME280;19751;40.274;18.268;2023-04-29T08:12:33;101125.16;;;19.01;49.86
33404;BME280;19751;40.274;18.268;2023-04-29T08:14:59;101136.81;;;19.08;48.99
33404;BME280;19751;40.274;18.268;2023-04-29T08:17:24;101129.31;;;19.16;48.53
33404;BME280;19751;40.274;18.268;2023-04-29T08:19:50;101131.94;;;19.22;47.60
33404;BME280;19751;40.274;18.268;2023-04-29T08:22:15;101128.75;;;19.25;47.40
33404;BME280;19751;40.274;18.268;2023-04-29T08:24:41;101135.97;;;19.31;46.65
33404;BME280;19751;40.274;18.268;2023-04-29T08:27:07;101130.97;;;19.40;46.46
33404;BME280;19751;40.274;18.268;2023-04-29T08:29:32;101135.97;;;19.43;46.34
33404;BME280;19751;40.274;18.268;2023-04-29T08:31:59;101125.31;;;19.42;46.30
33404;BME280;19751;40.274;18.268;2023-04-29T08:34:24;101128.25;;;19.40;46.41
33404;BME280;19751;40.274;18.268;2023-04-29T08:36:50;101131.44;;;19.49;46.46
33404;BME280;19751;40.274;18.268;2023-04-29T08:39:16;101137.63;;;19.56;46.61
33404;BME280;19751;40.274;18.268;2023-04-29T08:41:41;101131.25;;;19.62;46.22
33404;BME280;19751;40.274;18.268;2023-04-29T08:44:09;101131.81;;;19.64;46.16
33404;BME280;19751;40.274;18.268;2023-04-29T08:46:37;101127.44;;;19.63;45.39
33404;BME280;19751;40.274;18.268;2023-04-29T08:49:02;101136.81;;;19.67;44.97
33404;BME280;19751;40.274;18.268;2023-04-29T08:51:28;101127.06;;;19.71;45.25
33404;BME280;19751;40.274;18.268;2023-04-29T08:53:56;101131.56;;;19.77;45.11
33404;BME280;19751;40.274;18.268;2023-04-29T08:56:21;101119.69;;;19.83;44.97
33404;BME280;19751;40.274;18.268;2023-04-29T08:58:49;101129.88;;;19.88;45.05
33404;BME280;19751;40.274;18.268;2023-04-29T09:01:20;101131.88;;;19.93;45.22
33404;BME280;19751;40.274;18.268;2023-04-29T09:03:55;101135.19;;;19.95;45.65
33404;BME280;19751;40.274;18.268;2023-04-29T09:06:26;101132.47;;;19.95;45.29
33404;BME280;19751;40.274;18.268;2023-04-29T09:08:51;101125.72;;;19.85;44.92
33404;BME280;19751;40.274;18.268;2023-04-29T09:11:18;101126.22;;;19.82;44.86
33404;BME280;19751;40.274;18.268;2023-04-29T09:13:44;101117.28;;;19.87;43.98
33404;BME280;19751;40.274;18.268;2023-04-29T09:16:13;101121.34;;;19.84;44.14
33404;BME280;19751;40.274;18.268;2023-04-29T09:18:51;101116.47;;;19.86;44.28
33404;BME280;19751;40.274;18.268;2023-04-29T09:21:26;101124.38;;;20.00;45.17
33404;BME280;19751;40.274;18.268;2023-04-29T09:23:53;101115.09;;;20.01;45.07
33404;BME280;19751;40.274;18.268;2023-04-29T09:26:20;101113.88;;;20.08;45.65
33404;BME280;19751;40.274;18.268;2023-04-29T09:28:47;101106.81;;;20.24;46.62
33404;BME280;19751;40.274;18.268;2023-04-29T09:31:26;101111.81;;;20.44;46.64
33404;BME280;19751;40.274;18.268;2023-04-29T09:33:56;101105.75;;;20.54;45.93
33404;BME280;19751;40.274;18.268;2023-04-29T09:36:46;101097.47;;;20.49;46.06
33404;BME280;19751;40.274;18.268;2023-04-29T09:39:16;101099.44;;;20.53;46.43
33404;BME280;19751;40.274;18.268;2023-04-29T09:44:17;101098.47;;;20.76;47.41
33404;BME280;19751;40.274;18.268;2023-04-29T09:46:54;101095.16;;;20.74;48.06
33404;BME280;19751;40.274;18.268;2023-04-29T09:49:24;101097.81;;;20.86;48.00
33404;BME280;19751;40.274;18.268;2023-04-29T09:51:58;101087.50;;;20.93;47.71
33404;BME280;19751;40.274;18.268;2023-04-29T09:54:27;101085.59;;;20.94;47.63
33404;BME280;19751;40.274;18.268;2023-04-29T09:56:54;101078.19;;;20.94;48.07
33404;BME280;19751;40.274;18.268;2023-04-29T09:59:21;101069.66;;;21.07;50.10
33404;BME280;19751;40.274;18.268;2023-04-29T10:01:48;101065.41;;;21.17;49.74
33404;BME280;19751;40.274;18.268;2023-04-29T10:04:15;101073.19;;;21.25;49.96
33404;BME280;19751;40.274;18.268;2023-04-29T10:06:43;101065.88;;;21.30;49.79
33404;BME280;19751;40.274;18.268;2023-04-29T10:09:12;101061.84;;;21.33;49.55
33404;BME280;19751;40.274;18.268;2023-04-29T10:12:00;101054.09;;;21.30;48.47
33404;BME280;19751;40.274;18.268;2023-04-29T10:14:30;101049.28;;;21.37;48.68
33404;BME280;19751;40.274;18.268;2023-04-29T10:17:02;101049.22;;;21.54;47.96
33404;BME280;19751;40.274;18.268;2023-04-29T10:19:51;101060.84;;;21.61;46.88
33404;BME280;19751;40.274;18.268;2023-04-29T10:22:39;101060.84;;;21.61;46.79
33404;BME280;19751;40.274;18.268;2023-04-29T10:25:09;101064.50;;;21.72;45.29
33404;BME280;19751;40.274;18.268;2023-04-29T10:27:36;101057.44;;;21.76;44.86
33404;BME280;19751;40.274;18.268;2023-04-29T10:30:02;101067.84;;;21.74;45.19
33404;BME280;19751;40.274;18.268;2023-04-29T10:32:29;101059.31;;;21.70;45.27
33404;BME280;19751;40.274;18.268;2023-04-29T10:34:56;101057.13;;;21.72;46.05
33404;BME280;19751;40.274;18.268;2023-04-29T10:37:23;101054.97;;;21.74;45.89
33404;BME280;19751;40.274;18.268;2023-04-29T10:40:06;101047.47;;;21.92;46.88
33404;BME280;19751;40.274;18.268;2023-04-29T10:42:55;101036.88;;;22.00;46.73
33404;BME280;19751;40.274;18.268;2023-04-29T10:45:24;101042.69;;;22.04;46.47
33404;BME280;19751;40.274;18.268;2023-04-29T10:53:13;101035.72;;;21.96;44.60
33404;BME280;19751;40.274;18.268;2023-04-29T10:55:39;101019.59;;;22.00;44.98
33404;BME280;19751;40.274;18.268;2023-04-29T10:58:38;101027.91;;;22.10;44.83
33404;BME280;19751;40.274;18.268;2023-04-29T11:01:05;101023.28;;;22.11;44.29
33404;BME280;19751;40.274;18.268;2023-04-29T11:03:51;101027.22;;;22.20;43.86
33404;BME280;19751;40.274;18.268;2023-04-29T11:11:45;101017.63;;;22.22;42.64
33404;BME280;19751;40.274;18.268;2023-04-29T11:14:18;101015.50;;;22.29;41.65
33404;BME280;19751;40.274;18.268;2023-04-29T11:16:47;101023.75;;;22.29;41.90
33404;BME280;19751;40.274;18.268;2023-04-29T11:19:15;101010.66;;;22.37;41.91
33404;BME280;19751;40.274;18.268;2023-04-29T11:21:43;100997.81;;;22.47;41.59
33404;BME280;19751;40.274;18.268;2023-04-29T11:24:09;101009.41;;;22.54;40.98
33404;BME280;19751;40.274;18.268;2023-04-29T11:26:36;100995.16;;;22.57;40.74
33404;BME280;19751;40.274;18.268;2023-04-29T11:29:04;101002.00;;;22.55;41.08
33404;BME280;19751;40.274;18.268;2023-04-29T11:31:30;100997.09;;;22.57;41.23
33404;BME280;19751;40.274;18.268;2023-04-29T11:33:57;100991.66;;;22.67;40.67
33404;BME280;19751;40.274;18.268;2023-04-29T11:36:23;100998.91;;;22.83;40.53
33404;BME280;19751;40.274;18.268;2023-04-29T11:38:49;100989.03;;;22.88;39.86
33404;BME280;19751;40.274;18.268;2023-04-29T11:41:15;100978.34;;;22.86;39.63
33404;BME280;19751;40.274;18.268;2023-04-29T11:43:41;100978.84;;;22.78;39.99
33404;BME280;19751;40.274;18.268;2023-04-29T11:46:12;100980.22;;;22.80;40.14
33404;BME280;19751;40.274;18.268;2023-04-29T11:48:44;100980.88;;;22.93;40.53
33404;BME280;19751;40.274;18.268;2023-04-29T11:51:11;100981.78;;;23.08;40.07
33404;BME280;19751;40.274;18.268;2023-04-29T11:53:36;100988.16;;;23.14;39.42
33404;BME280;19751;40.274;18.268;2023-04-29T11:56:02;100987.66;;;23.32;37.58
33404;BME280;19751;40.274;18.268;2023-04-29T11:58:28;100991.53;;;23.31;36.92
33404;BME280;19751;40.274;18.268;2023-04-29T12:00:53;100991.22;;;23.28;36.74
33404;BME280;19751;40.274;18.268;2023-04-29T12:03:19;100986.84;;;23.27;36.55
33404;BME280;19751;40.274;18.268;2023-04-29T12:08:12;100978.59;;;23.27;38.52
33404;BME280;19751;40.274;18.268;2023-04-29T12:10:38;100983.56;;;23.35;38.71
33404;BME280;19751;40.274;18.268;2023-04-29T12:13:03;100992.66;;;23.41;38.31
33404;BME280;19751;40.274;18.268;2023-04-29T12:15:30;100988.78;;;23.37;37.44
33404;BME280;19751;40.274;18.268;2023-04-29T12:17:55;100982.19;;;23.32;37.40
33404;BME280;19751;40.274;18.268;2023-04-29T12:20:21;100979.44;;;23.32;37.17
33404;BME280;19751;40.274;18.268;2023-04-29T12:22:47;100981.66;;;23.41;37.20
33404;BME280;19751;40.274;18.268;2023-04-29T12:25:14;100977.81;;;23.47;36.70
33404;BME280;19751;40.274;18.268;2023-04-29T12:27:40;100976.22;;;23.56;35.97
33404;BME280;19751;40.274;18.268;2023-04-29T12:30:08;100978.44;;;23.64;36.00
33404;BME280;19751;40.274;18.268;2023-04-29T12:32:34;100970.25;;;23.79;35.76
33404;BME280;19751;40.274;18.268;2023-04-29T12:35:01;100969.16;;;23.86;35.66
33404;BME280;19751;40.274;18.268;2023-04-29T12:37:26;100970.25;;;23.85;34.88
33404;BME280;19751;40.274;18.268;2023-04-29T12:39:54;100966.13;;;23.87;34.77
33404;BME280;19751;40.274;18.268;2023-04-29T12:42:19;100962.84;;;23.85;34.75
33404;BME280;19751;40.274;18.268;2023-04-29T12:44:45;100965.84;;;23.84;34.13
33404;BME280;19751;40.274;18.268;2023-04-29T12:47:15;100953.19;;;23.77;34.17
33404;BME280;19751;40.274;18.268;2023-04-29T12:49:44;100954.59;;;23.90;33.88
33404;BME280;19751;40.274;18.268;2023-04-29T12:52:10;100950.47;;;24.08;33.14
33404;BME280;19751;40.274;18.268;2023-04-29T12:54:37;100947.72;;;24.23;33.59
33404;BME280;19751;40.274;18.268;2023-04-29T12:57:05;100941.66;;;24.21;33.21
33404;BME280;19751;40.274;18.268;2023-04-29T12:59:30;100930.41;;;24.23;33.24
33404;BME280;19751;40.274;18.268;2023-04-29T13:01:56;100933.44;;;24.26;33.17
33404;BME280;19751;40.274;18.268;2023-04-29T13:04:21;100933.72;;;24.40;33.20
33404;BME280;19751;40.274;18.268;2023-04-29T13:06:47;100938.94;;;24.47;33.14